Time;durP1;ratioP1;P1;durP2;ratioP2;P2;SDS_P1;SDS_P2;PMS_P1;PMS_P2;Temp;Humidity;BMP_temperature;BMP_pressure;BME280_temperature;BME280_humidity;BME280_pressure;Samples;Min_cycle;Max_cycle;Signal;HPM_P1;HPM_P2
2022/10/21 00:00:33;;;;;;;5.03;3.40;;;21.40;48.90;20.50;100557.00;;;;5084526;28;20044;-67
2022/10/21 00:02:59;;;;;;;4.60;3.70;;;21.40;48.90;20.50;100550.00;;;;5087125;28;20284;-67
2022/10/21 00:05:25;;;;;;;4.33;3.20;;;21.40;48.90;20.50;100553.00;;;;5088544;28;20461;-67
2022/10/21 00:07:50;;;;;;;3.70;3.00;;;21.40;48.90;20.50;100547.00;;;;5090027;28;20115;-67
2022/10/21 00:10:16;;;;;;;3.87;3.27;;;21.40;48.90;20.50;100548.00;;;;5084699;28;20115;-67
2022/10/21 00:12:42;;;;;;;4.17;2.73;;;21.40;48.90;20.50;100545.00;;;;5086491;28;20123;-67
2022/10/21 00:15:08;;;;;;;3.83;2.83;;;21.50;49.00;20.50;100555.00;;;;5085045;28;20055;-67
2022/10/21 00:17:38;;;;;;;4.13;2.72;;;21.40;48.90;20.50;100542.00;;;;5088630;28;20032;-67
2022/10/21 00:20:05;;;;;;;4.82;2.53;;;21.30;48.90;20.50;100545.00;;;;5070530;28;20035;-67
2022/10/21 00:22:31;;;;;;;3.97;2.85;;;21.40;48.90;20.50;100542.00;;;;5071195;28;20039;-67
2022/10/21 00:24:56;;;;;;;3.43;3.13;;;21.40;48.90;20.50;100543.00;;;;5090875;28;20020;-67
2022/10/21 00:27:22;;;;;;;6.57;2.60;;;21.40;48.90;20.50;100533.00;;;;5066340;28;20060;-67
2022/10/21 00:29:48;;;;;;;5.03;3.23;;;21.40;48.90;20.50;100533.00;;;;5071562;28;20120;-67
2022/10/21 00:32:14;;;;;;;5.00;2.83;;;21.40;48.90;20.50;100538.00;;;;5086341;28;20478;-67
2022/10/21 00:34:42;;;;;;;2.97;2.50;;;21.40;48.90;20.50;100532.00;;;;5089418;28;21596;-67
2022/10/21 00:37:09;;;;;;;3.97;2.75;;;21.40;48.90;20.50;100529.00;;;;5086039;28;20044;-67
2022/10/21 00:39:35;;;;;;;3.42;3.13;;;21.40;48.90;20.50;100527.00;;;;5090211;28;20028;-67
2022/10/21 00:42:02;;;;;;;4.05;2.90;;;21.40;49.00;20.50;100523.00;;;;5083590;28;20037;-67
2022/10/21 00:44:29;;;;;;;3.80;3.10;;;21.40;49.00;20.50;100522.00;;;;5088058;28;20378;-67
2022/10/21 00:46:59;;;;;;;2.85;2.42;;;21.30;48.90;20.50;100518.00;;;;5052548;28;20136;-67
2022/10/21 00:49:53;;;;;;;2.83;2.55;;;21.40;49.00;20.50;100515.00;;;;5088558;28;20036;-67
2022/10/21 00:52:20;;;;;;;3.78;2.53;;;21.40;49.00;20.50;100527.00;;;;5064363;28;20089;-67
2022/10/21 00:54:47;;;;;;;2.88;2.60;;;21.40;49.00;20.50;100525.00;;;;5068425;28;20028;-67
2022/10/21 00:57:13;;;;;;;3.10;2.72;;;21.40;49.00;20.50;100516.00;;;;5059203;28;20023;-67
2022/10/21 00:59:47;;;;;;;3.92;2.80;;;21.40;49.00;20.50;100515.00;;;;5075782;28;20153;-67
2022/10/21 01:02:12;;;;;;;3.33;3.00;;;21.40;49.00;20.50;100507.00;;;;5049492;28;20397;-67
2022/10/21 01:04:38;;;;;;;3.67;3.37;;;21.40;49.00;20.50;100495.00;;;;5088784;28;20159;-68
2022/10/21 01:07:04;;;;;;;4.37;2.67;;;21.40;49.00;20.50;100497.00;;;;5087850;28;20060;-67
2022/10/21 01:09:29;;;;;;;4.27;2.70;;;21.40;49.00;20.50;100497.00;;;;5070359;28;20452;-67
2022/10/21 01:11:55;;;;;;;3.03;2.73;;;21.40;49.00;20.50;100494.00;;;;5087995;28;20477;-67
2022/10/21 01:14:30;;;;;;;2.83;2.40;;;21.40;49.00;20.50;100485.00;;;;5068040;28;20129;-67
2022/10/21 01:17:49;;;;;;;4.47;3.13;;;21.40;49.00;20.40;100485.00;;;;5091303;28;20469;-67
2022/10/21 01:20:42;;;;;;;;;;;21.40;49.00;20.40;100477.00;;;;5074351;28;20025;-67
2022/10/21 01:23:41;;;;;;;4.03;2.95;;;21.40;48.90;20.40;100473.00;;;;5087624;28;19947;-67
2022/10/21 01:26:31;;;;;;;;;;;21.40;48.90;20.40;100459.00;;;;5082231;28;20020;-67
2022/10/21 01:29:26;;;;;;;3.00;2.70;;;21.40;48.80;20.40;100460.00;;;;5090274;28;19911;-67
2022/10/21 01:32:10;;;;;;;3.25;2.65;;;21.40;48.90;20.40;100464.00;;;;5070578;28;20098;-67
2022/10/21 01:35:10;;;;;;;3.97;3.08;;;21.30;49.00;20.40;100463.00;;;;5071949;28;20039;-67
2022/10/21 01:37:44;;;;;;;3.67;3.15;;;21.40;49.10;20.40;100460.00;;;;5075082;28;20093;-67
2022/10/21 01:40:16;;;;;;;4.47;2.42;;;21.30;49.10;20.40;100465.00;;;;5072077;28;20047;-67
2022/10/21 01:42:56;;;;;;;4.15;3.03;;;21.40;49.20;20.40;100466.00;;;;5048635;28;20040;-67
2022/10/21 01:45:30;;;;;;;5.22;2.90;;;21.40;49.20;20.40;100475.00;;;;5072220;28;20488;-67
2022/10/21 01:48:27;;;;;;;4.10;2.60;;;21.30;49.20;20.40;100474.00;;;;5084764;28;20136;-67
2022/10/21 01:50:59;;;;;;;4.05;2.75;;;21.30;49.20;20.40;100470.00;;;;5063339;28;20447;-67
2022/10/21 01:53:47;;;;;;;5.57;3.00;;;21.40;49.30;20.40;100473.00;;;;5054906;28;20058;-67
2022/10/21 01:56:13;;;;;;;4.07;2.97;;;21.30;49.30;20.40;100473.00;;;;5054445;28;20390;-67
2022/10/21 01:58:39;;;;;;;2.93;2.63;;;21.40;49.20;20.40;100467.00;;;;5079381;28;20069;-67
2022/10/21 02:01:05;;;;;;;3.13;2.73;;;21.40;49.30;20.40;100462.00;;;;5069096;28;20553;-67
2022/10/21 02:03:37;;;;;;;2.88;2.55;;;21.40;49.30;20.40;100452.00;;;;5061944;28;20028;-67
2022/10/21 02:06:03;;;;;;;3.70;2.80;;;21.30;49.30;20.40;100460.00;;;;5072013;28;20034;-67
2022/10/21 02:08:29;;;;;;;3.88;2.88;;;21.40;49.30;20.40;100451.00;;;;5051272;28;20024;-67
2022/10/21 02:10:57;;;;;;;6.30;2.87;;;21.40;49.30;20.40;100459.00;;;;5070917;28;20490;-67
2022/10/21 02:13:33;;;;;;;5.43;2.83;;;21.40;49.30;20.40;100451.00;;;;5053412;28;20103;-67
2022/10/21 02:16:00;;;;;;;3.13;2.83;;;21.40;49.30;20.40;100443.00;;;;5063753;28;20039;-67
2022/10/21 02:18:26;;;;;;;3.22;2.60;;;21.40;49.30;20.40;100447.00;;;;5054037;28;20070;-67
2022/10/21 02:20:55;;;;;;;4.43;2.77;;;21.40;49.30;20.40;100439.00;;;;5072671;28;20024;-67
2022/10/21 02:23:34;;;;;;;4.75;3.10;;;21.30;49.30;20.40;100436.00;;;;5072288;28;20032;-67
2022/10/21 02:26:00;;;;;;;2.78;2.55;;;21.40;49.30;20.40;100438.00;;;;5071866;28;20493;-67
2022/10/21 02:28:26;;;;;;;4.13;2.97;;;21.40;49.30;20.40;100426.00;;;;5075097;28;20105;-67
2022/10/21 02:31:18;;;;;;;3.70;2.87;;;21.40;49.30;20.40;100429.00;;;;5076032;28;20062;-67
2022/10/21 02:34:16;;;;;;;4.10;3.13;;;21.40;49.30;20.40;100412.00;;;;5075392;28;20030;-67
2022/10/21 02:37:20;;;;;;;;;;;21.40;49.40;20.40;100418.00;;;;5073239;28;20036;-67
2022/10/21 02:39:56;;;;;;;3.58;2.70;;;21.40;49.20;20.40;100415.00;;;;5093063;28;19923;-67
2022/10/21 02:42:29;;;;;;;4.50;2.58;;;21.50;49.30;20.40;100415.00;;;;5059639;28;20028;-67
2022/10/21 02:44:55;;;;;;;3.15;2.80;;;21.30;49.30;20.40;100406.00;;;;5075000;28;20050;-67
2022/10/21 02:47:24;;;;;;;5.57;2.90;;;21.40;49.40;20.40;100402.00;;;;5075653;28;20396;-67
2022/10/21 02:49:50;;;;;;;3.83;2.90;;;21.40;49.40;20.40;100403.00;;;;5072932;28;20520;-67
2022/10/21 02:52:15;;;;;;;3.27;2.87;;;21.40;49.40;20.40;100405.00;;;;5093463;28;20016;-67
2022/10/21 02:54:41;;;;;;;3.80;3.10;;;21.30;49.40;20.40;100400.00;;;;5093515;28;20115;-67
2022/10/21 02:57:07;;;;;;;3.90;3.00;;;21.40;49.40;20.40;100400.00;;;;5093202;28;20117;-67
2022/10/21 02:59:32;;;;;;;3.33;2.80;;;21.30;49.40;20.40;100391.00;;;;5093900;28;20111;-67
2022/10/21 03:01:58;;;;;;;3.13;2.57;;;21.40;49.50;20.40;100378.00;;;;5092798;28;20115;-67
2022/10/21 03:04:24;;;;;;;5.47;3.20;;;21.40;49.40;20.40;100372.00;;;;5093249;28;20487;-67
2022/10/21 03:06:50;;;;;;;3.63;2.90;;;21.40;49.50;20.40;100363.00;;;;5092768;28;20492;-67
2022/10/21 03:09:15;;;;;;;3.37;2.90;;;21.40;49.50;20.40;100365.00;;;;5093395;28;20415;-67
2022/10/21 03:11:41;;;;;;;4.07;2.83;;;21.30;49.40;20.40;100371.00;;;;5092634;28;20111;-67
2022/10/21 03:14:07;;;;;;;5.10;2.73;;;21.40;49.50;20.40;100370.00;;;;5093701;28;20462;-67
2022/10/21 03:16:32;;;;;;;3.97;3.00;;;21.40;49.50;20.40;100361.00;;;;5092814;28;20525;-67
2022/10/21 03:18:58;;;;;;;3.30;2.53;;;21.40;49.50;20.40;100368.00;;;;5091890;28;20119;-67
2022/10/21 03:21:24;;;;;;;6.53;2.87;;;21.40;49.50;20.40;100369.00;;;;5092728;28;20070;-67
2022/10/21 03:23:50;;;;;;;4.47;2.80;;;21.40;49.50;20.50;100376.00;;;;5093805;28;20150;-67
2022/10/21 03:26:15;;;;;;;4.53;3.10;;;21.40;49.50;20.50;100375.00;;;;5092984;28;20026;-67
2022/10/21 03:28:41;;;;;;;4.20;2.90;;;21.30;49.50;20.40;100383.00;;;;5092929;28;20060;-67
2022/10/21 03:31:07;;;;;;;3.17;2.47;;;21.40;49.50;20.40;100376.00;;;;5091195;28;20024;-67
2022/10/21 03:33:33;;;;;;;4.23;2.67;;;21.40;49.60;20.50;100379.00;;;;5075212;28;20388;-67
2022/10/21 03:35:58;;;;;;;4.13;2.70;;;21.40;49.60;20.50;100378.00;;;;5093089;28;20118;-67
2022/10/21 03:38:24;;;;;;;4.83;2.57;;;21.40;49.60;20.50;100380.00;;;;5091850;28;20078;-67
2022/10/21 03:40:50;;;;;;;4.30;2.83;;;21.40;50.30;20.50;100372.00;;;;5092187;28;20462;-67
2022/10/21 03:43:16;;;;;;;3.80;2.97;;;21.40;49.60;20.50;100366.00;;;;5092726;28;20024;-67
2022/10/21 03:45:42;;;;;;;3.20;2.53;;;21.40;49.60;20.50;100365.00;;;;5074204;28;20028;-67
2022/10/21 03:48:07;;;;;;;3.43;2.57;;;21.40;49.60;20.50;100363.00;;;;5092223;28;20132;-67
2022/10/21 03:50:33;;;;;;;4.75;2.80;;;21.40;49.60;20.50;100373.00;;;;5074462;28;20380;-67
2022/10/21 03:52:59;;;;;;;4.07;2.80;;;21.40;49.60;20.50;100367.00;;;;5092069;28;20040;-67
2022/10/21 03:55:25;;;;;;;3.60;2.65;;;21.40;49.60;20.50;100360.00;;;;5092615;28;20275;-67
2022/10/21 03:57:51;;;;;;;3.55;2.90;;;21.40;49.70;20.50;100368.00;;;;5074704;28;20413;-67
2022/10/21 04:00:17;;;;;;;4.30;2.95;;;21.50;49.70;20.50;100366.00;;;;5092233;28;20127;-67
2022/10/21 04:02:43;;;;;;;3.97;3.08;;;21.40;49.70;20.50;100372.00;;;;5080685;28;20375;-67
2022/10/21 04:05:09;;;;;;;4.23;2.90;;;21.40;49.70;20.50;100371.00;;;;5091794;28;20028;-67
2022/10/21 04:07:35;;;;;;;3.67;2.57;;;21.40;49.70;20.50;100369.00;;;;5073613;28;20516;-67
2022/10/21 04:10:00;;;;;;;5.97;3.43;;;21.40;49.70;20.50;100365.00;;;;5092350;28;20122;-67
2022/10/21 04:12:26;;;;;;;3.00;2.70;;;21.40;49.70;20.50;100371.00;;;;5091579;28;20039;-67
2022/10/21 04:14:52;;;;;;;3.80;2.80;;;21.40;49.70;20.50;100369.00;;;;5092052;28;20523;-67
2022/10/21 04:17:17;;;;;;;3.30;2.57;;;21.40;49.70;20.50;100353.00;;;;5090760;28;20063;-67
2022/10/21 04:19:43;;;;;;;3.40;2.67;;;21.40;49.70;20.50;100350.00;;;;5092035;28;20028;-67
2022/10/21 04:22:09;;;;;;;2.77;2.47;;;21.40;49.70;20.50;100357.00;;;;5091161;28;20028;-67
2022/10/21 04:24:35;;;;;;;4.32;2.90;;;21.40;49.70;20.50;100346.00;;;;5075570;28;20638;-67
2022/10/21 04:27:01;;;;;;;4.77;2.87;;;21.40;49.80;20.50;100353.00;;;;5091122;28;20032;-67
2022/10/21 04:29:26;;;;;;;4.33;3.03;;;21.40;49.80;20.50;100341.00;;;;5092054;28;20056;-67
2022/10/21 04:31:52;;;;;;;4.27;2.83;;;21.40;49.80;20.50;100333.00;;;;5090496;28;20123;-67
2022/10/21 04:34:18;;;;;;;3.67;2.83;;;21.40;49.80;20.50;100326.00;;;;5091697;28;20099;-67
2022/10/21 04:36:43;;;;;;;3.13;2.30;;;21.40;49.80;20.50;100335.00;;;;5091010;28;20118;-67
2022/10/21 04:39:09;;;;;;;4.80;3.00;;;21.40;49.80;20.50;100334.00;;;;5087729;28;20177;-67
2022/10/21 04:41:35;;;;;;;4.37;3.27;;;21.40;49.80;20.50;100335.00;;;;5090117;28;20173;-67
2022/10/21 04:44:01;;;;;;;3.20;2.83;;;21.40;49.80;20.50;100326.00;;;;5088994;28;20111;-67
2022/10/21 04:46:27;;;;;;;3.10;2.47;;;21.40;49.80;20.50;100330.00;;;;5066269;28;20036;-67
2022/10/21 04:48:53;;;;;;;3.83;2.90;;;21.40;49.80;20.50;100316.00;;;;5091275;28;20061;-67
2022/10/21 04:51:18;;;;;;;3.70;2.80;;;21.40;49.80;20.50;100324.00;;;;5090639;28;20099;-67
2022/10/21 04:53:44;;;;;;;3.97;2.63;;;21.50;49.90;20.50;100325.00;;;;5090747;28;20118;-67
2022/10/21 04:56:10;;;;;;;5.00;2.80;;;21.40;49.80;20.50;100326.00;;;;5071402;28;20032;-67
2022/10/21 04:58:36;;;;;;;3.67;2.77;;;21.40;49.80;20.50;100331.00;;;;5091185;28;20115;-67
2022/10/21 05:01:01;;;;;;;2.40;2.20;;;21.50;49.80;20.50;100331.00;;;;5090655;28;20491;-67
2022/10/21 05:03:27;;;;;;;6.23;2.87;;;21.40;49.80;20.50;100335.00;;;;5073070;28;20102;-67
2022/10/21 05:05:53;;;;;;;4.27;2.77;;;21.40;49.80;20.50;100341.00;;;;5091430;28;20111;-67
2022/10/21 05:08:19;;;;;;;3.53;2.57;;;21.50;49.90;20.50;100335.00;;;;5090454;28;20027;-67
2022/10/21 05:10:44;;;;;;;3.60;2.88;;;21.40;49.80;20.50;100332.00;;;;5078297;28;20122;-67
2022/10/21 05:13:10;;;;;;;5.03;3.00;;;21.50;49.90;20.50;100332.00;;;;5054600;28;20036;-67
2022/10/21 05:15:36;;;;;;;4.40;3.17;;;21.40;49.80;20.50;100334.00;;;;5090597;28;20452;-67
2022/10/21 05:18:02;;;;;;;3.60;2.87;;;21.40;49.80;20.50;100334.00;;;;5089701;28;20036;-67
2022/10/21 05:20:27;;;;;;;4.30;2.60;;;21.40;49.90;20.50;100325.00;;;;5070820;28;20070;-67
2022/10/21 05:22:53;;;;;;;3.80;3.00;;;21.40;49.80;20.50;100318.00;;;;5069921;28;20560;-67
2022/10/21 05:25:19;;;;;;;4.13;2.90;;;21.40;49.80;20.50;100312.00;;;;5090813;28;20108;-67
2022/10/21 05:27:45;;;;;;;4.75;2.92;;;21.50;49.90;20.50;100316.00;;;;5089622;28;20067;-67
2022/10/21 05:30:11;;;;;;;3.30;3.00;;;21.40;49.80;20.50;100323.00;;;;5077219;28;20385;-67
2022/10/21 05:32:38;;;;;;;4.05;3.13;;;21.40;49.90;20.50;100325.00;;;;5078695;28;20496;-67
2022/10/21 05:35:04;;;;;;;4.75;3.30;;;21.40;49.90;20.50;100337.00;;;;5089568;28;20115;-67
2022/10/21 05:37:30;;;;;;;5.63;3.00;;;21.40;49.90;20.50;100335.00;;;;5089208;28;20082;-67
2022/10/21 05:39:55;;;;;;;2.70;2.50;;;21.40;49.90;20.50;100334.00;;;;5089737;28;20469;-67
2022/10/21 05:42:21;;;;;;;5.03;3.63;;;21.40;49.90;20.50;100319.00;;;;5089686;28;20127;-67
2022/10/21 05:44:47;;;;;;;4.70;2.83;;;21.50;50.00;20.50;100331.00;;;;5085111;28;20153;-67
2022/10/21 05:47:13;;;;;;;5.20;3.60;;;21.40;49.90;20.50;100331.00;;;;5088449;28;20115;-67
2022/10/21 05:49:38;;;;;;;4.60;3.13;;;21.40;49.90;20.50;100321.00;;;;5070807;28;20047;-67
2022/10/21 05:52:04;;;;;;;4.13;2.93;;;21.50;50.00;20.50;100334.00;;;;5088729;28;20036;-67
2022/10/21 05:54:30;;;;;;;5.27;3.00;;;21.50;50.00;20.50;100336.00;;;;5088942;28;20028;-67
2022/10/21 05:56:56;;;;;;;5.90;3.10;;;21.50;50.00;20.50;100342.00;;;;5072445;28;20112;-67
2022/10/21 05:59:22;;;;;;;4.22;3.25;;;21.40;49.90;20.50;100332.00;;;;5089017;28;20119;-67
2022/10/21 06:01:48;;;;;;;4.00;3.15;;;21.40;49.90;20.50;100335.00;;;;5089025;28;20039;-67
2022/10/21 06:04:14;;;;;;;3.97;3.03;;;21.40;49.90;20.50;100346.00;;;;5072375;28;20025;-67
2022/10/21 06:06:39;;;;;;;4.20;3.23;;;21.40;49.90;20.50;100339.00;;;;5091250;28;20111;-67
2022/10/21 06:09:05;;;;;;;5.93;3.43;;;21.50;50.00;20.50;100339.00;;;;5088513;28;20071;-67
2022/10/21 06:11:31;;;;;;;4.10;3.13;;;21.40;50.00;20.50;100333.00;;;;5088850;28;20119;-67
2022/10/21 06:13:56;;;;;;;4.83;3.23;;;21.40;49.90;20.50;100335.00;;;;5088290;28;20028;-67
2022/10/21 06:16:22;;;;;;;4.50;3.10;;;21.40;49.90;20.50;100337.00;;;;5086855;28;20038;-67
2022/10/21 06:18:48;;;;;;;4.00;3.27;;;21.40;50.00;20.50;100321.00;;;;5085768;28;20063;-67
2022/10/21 06:21:14;;;;;;;5.00;3.60;;;21.40;49.90;20.50;100325.00;;;;5053541;28;20028;-67
2022/10/21 06:23:40;;;;;;;4.63;3.10;;;21.40;50.00;20.50;100322.00;;;;5085747;28;20117;-67
2022/10/21 06:26:13;;;;;;;3.67;3.10;;;21.50;50.00;20.50;100320.00;;;;5086043;28;20086;-67
2022/10/21 06:28:41;;;;;;;6.78;3.35;;;21.40;50.00;20.50;100313.00;;;;5086781;28;20062;-67
2022/10/21 06:31:07;;;;;;;4.15;3.40;;;21.40;50.00;20.50;100318.00;;;;5070869;28;20052;-67
2022/10/21 06:33:33;;;;;;;5.57;3.10;;;21.40;50.00;20.50;100314.00;;;;5053796;28;20051;-67
2022/10/21 06:35:59;;;;;;;5.25;3.33;;;21.40;50.00;20.50;100317.00;;;;5072194;28;20040;-67
2022/10/21 06:38:25;;;;;;;6.63;3.33;;;21.40;50.00;20.50;100314.00;;;;5089139;28;20501;-67
2022/10/21 06:40:51;;;;;;;5.90;2.90;;;21.40;50.00;20.50;100321.00;;;;5073380;28;20028;-67
2022/10/21 06:43:18;;;;;;;4.20;2.80;;;21.40;50.00;20.50;100332.00;;;;5070424;28;20093;-67
2022/10/21 06:45:43;;;;;;;;;;;21.40;50.00;20.50;100321.00;;;;5091102;28;20485;-67
2022/10/21 06:48:09;;;;;;;4.70;2.88;;;21.40;49.90;20.50;100333.00;;;;5087836;28;19923;-67
2022/10/21 06:50:38;;;;;;;3.67;3.00;;;21.50;49.90;20.50;100332.00;;;;5089078;28;20032;-67
2022/10/21 06:53:04;;;;;;;4.85;3.08;;;21.50;50.00;20.50;100335.00;;;;5069932;28;20064;-67
2022/10/21 06:55:30;;;;;;;5.60;3.10;;;21.40;49.90;20.50;100338.00;;;;5055180;28;20113;-67
2022/10/21 06:57:56;;;;;;;3.78;2.88;;;21.40;50.00;20.50;100331.00;;;;5095838;28;20032;-67
2022/10/21 07:00:21;;;;;;;5.87;3.07;;;21.40;50.00;20.50;100338.00;;;;5088907;28;20024;-67
2022/10/21 07:02:47;;;;;;;4.37;3.30;;;21.40;50.00;20.50;100351.00;;;;5089096;28;20107;-67
2022/10/21 07:05:13;;;;;;;6.07;3.03;;;21.40;50.00;20.50;100347.00;;;;5089333;28;20085;-67
2022/10/21 07:07:38;;;;;;;4.77;3.53;;;21.40;50.00;20.50;100355.00;;;;5087997;28;20063;-67
2022/10/21 07:10:04;;;;;;;4.27;3.50;;;21.40;50.10;20.50;100351.00;;;;5071637;28;20111;-67
2022/10/21 07:12:30;;;;;;;4.68;3.00;;;21.40;50.00;20.50;100359.00;;;;5068734;28;20028;-67
2022/10/21 07:14:56;;;;;;;3.90;2.93;;;21.40;50.00;20.50;100350.00;;;;5093315;28;20373;-67
2022/10/21 07:17:22;;;;;;;5.00;3.43;;;21.40;50.00;20.50;100350.00;;;;5093188;28;20489;-67
2022/10/21 07:19:47;;;;;;;4.60;3.17;;;21.50;50.10;20.50;100345.00;;;;5092518;28;20025;-67
2022/10/21 07:22:14;;;;;;;5.17;2.80;;;21.40;50.00;20.50;100346.00;;;;5092918;28;20529;-67
2022/10/21 07:24:40;;;;;;;4.72;2.97;;;21.40;50.10;20.50;100339.00;;;;5049992;28;20119;-67
2022/10/21 07:27:05;;;;;;;3.55;2.92;;;21.40;50.10;20.50;100351.00;;;;5092711;28;20048;-67
2022/10/21 07:29:31;;;;;;;4.23;2.80;;;21.40;50.10;20.50;100349.00;;;;5074669;28;20380;-67
2022/10/21 07:31:57;;;;;;;5.50;3.40;;;21.40;50.10;20.50;100340.00;;;;5091978;28;20070;-67
2022/10/21 07:34:24;;;;;;;4.10;3.00;;;21.40;50.10;20.50;100358.00;;;;5093041;28;20102;-67
2022/10/21 07:36:51;;;;;;;4.18;2.75;;;21.40;50.10;20.50;100359.00;;;;5092285;28;20521;-67
2022/10/21 07:39:20;;;;;;;3.88;3.13;;;21.40;50.10;20.50;100358.00;;;;5080738;28;20103;-67
2022/10/21 07:41:52;;;;;;;4.28;2.63;;;21.40;50.10;20.50;100366.00;;;;5073645;28;20165;-67
2022/10/21 07:44:18;;;;;;;4.25;2.90;;;21.40;50.20;20.50;100361.00;;;;5074934;28;20028;-67
2022/10/21 07:46:44;;;;;;;3.08;2.67;;;21.40;50.10;20.50;100364.00;;;;5074163;28;20031;-67
2022/10/21 07:49:10;;;;;;;3.80;2.90;;;21.40;50.10;20.50;100367.00;;;;5074761;28;20027;-67
2022/10/21 07:51:36;;;;;;;4.47;3.40;;;21.50;50.20;20.50;100371.00;;;;5074343;28;20463;-67
2022/10/21 07:54:01;;;;;;;4.13;2.87;;;21.40;50.10;20.50;100380.00;;;;5092182;28;20117;-67
2022/10/21 07:56:34;;;;;;;4.07;2.93;;;21.40;50.10;20.50;100377.00;;;;5092004;28;20133;-67
2022/10/21 07:59:00;;;;;;;3.92;2.85;;;21.40;50.10;20.50;100375.00;;;;5088746;28;20078;-67
2022/10/21 08:01:26;;;;;;;4.28;3.03;;;21.40;50.10;20.50;100389.00;;;;5090922;28;20107;-67
2022/10/21 08:03:53;;;;;;;3.23;2.80;;;21.40;50.20;20.50;100379.00;;;;5071929;28;20050;-67
2022/10/21 08:06:19;;;;;;;3.88;2.70;;;21.50;50.20;20.50;100379.00;;;;5089227;28;20537;-67
2022/10/21 08:08:44;;;;;;;3.23;2.57;;;21.40;50.10;20.50;100381.00;;;;5089844;28;20122;-67
2022/10/21 08:11:10;;;;;;;6.07;2.90;;;21.40;50.10;20.50;100379.00;;;;5087131;28;20027;-67
2022/10/21 08:13:38;;;;;;;4.60;2.97;;;21.40;50.10;20.50;100373.00;;;;5090145;28;20476;-67
2022/10/21 08:16:04;;;;;;;3.75;2.42;;;21.50;50.20;20.50;100367.00;;;;5074844;28;20065;-67
2022/10/21 08:18:30;;;;;;;3.35;3.05;;;21.50;50.20;20.50;100372.00;;;;5073066;28;20090;-67
2022/10/21 08:20:56;;;;;;;3.37;2.43;;;21.40;50.20;20.50;100379.00;;;;5090744;28;20457;-67
2022/10/21 08:23:22;;;;;;;3.97;2.73;;;21.40;50.50;20.50;100367.00;;;;5091395;28;20451;-68
2022/10/21 08:25:50;;;;;;;;;;;21.50;50.20;20.50;100378.00;;;;5091187;28;20397;-67
2022/10/21 08:28:16;;;;;;;4.32;3.13;;;21.50;50.10;20.50;100371.00;;;;5093716;28;20416;-67
2022/10/21 08:30:42;;;;;;;4.30;2.90;;;21.50;50.00;20.50;100361.00;;;;5073687;28;20066;-67
2022/10/21 08:33:08;;;;;;;5.03;3.08;;;21.50;50.00;20.50;100360.00;;;;5068949;28;20028;-67
2022/10/21 08:35:34;;;;;;;6.17;2.60;;;21.50;50.10;20.50;100363.00;;;;5073390;28;20073;-67
2022/10/21 08:37:59;;;;;;;5.40;3.00;;;21.50;50.10;20.50;100367.00;;;;5089175;28;20119;-67
2022/10/21 08:40:35;;;;;;;2.83;2.57;;;21.50;50.10;20.50;100359.00;;;;5090643;28;20415;-67
2022/10/21 08:43:09;;;;;;;3.70;2.97;;;21.40;50.10;20.50;100366.00;;;;5056330;28;20671;-67
2022/10/21 08:45:46;;;;;;;3.38;3.05;;;21.50;50.20;20.50;100370.00;;;;5055205;28;20036;-67
2022/10/21 08:48:15;;;;;;;3.80;3.10;;;21.50;50.20;20.50;100371.00;;;;5089262;28;20024;-67
2022/10/21 08:50:45;;;;;;;4.25;2.60;;;21.50;50.30;20.50;100367.00;;;;5072845;28;20032;-67
2022/10/21 08:53:24;;;;;;;3.50;2.60;;;21.50;50.30;20.50;100367.00;;;;5072471;28;20028;-67
2022/10/21 08:55:50;;;;;;;3.30;2.78;;;21.50;50.30;20.50;100372.00;;;;5073919;28;20032;-67
2022/10/21 08:58:23;;;;;;;3.80;3.13;;;21.50;50.20;20.50;100372.00;;;;5073786;28;20298;-66
2022/10/21 09:00:57;;;;;;;2.92;2.63;;;21.40;50.20;20.50;100368.00;;;;5077689;28;20034;-66
2022/10/21 09:03:53;;;;;;;3.60;2.92;;;21.50;50.30;20.50;100372.00;;;;5086823;28;20477;-67
2022/10/21 09:06:40;;;;;;;4.15;2.97;;;21.50;50.30;20.50;100370.00;;;;5068213;28;20032;-67
2022/10/21 09:09:28;;;;;;;4.85;3.13;;;21.50;50.30;20.50;100377.00;;;;5070197;28;20108;-66
2022/10/21 09:12:05;;;;;;;3.30;2.58;;;21.50;50.30;20.50;100376.00;;;;5070795;28;20073;-67
2022/10/21 09:15:07;;;;;;;3.20;2.75;;;21.50;50.30;20.50;100386.00;;;;5057333;28;20392;-66
2022/10/21 09:17:46;;;;;;;3.78;2.70;;;21.50;50.30;20.50;100391.00;;;;5086764;28;20042;-67
2022/10/21 09:20:30;;;;;;;3.65;2.13;;;21.50;50.30;20.50;100396.00;;;;5072280;28;20522;-66
2022/10/21 09:23:37;;;;;;;5.15;2.80;;;21.50;50.30;20.50;100395.00;;;;5069738;28;20036;-66
2022/10/21 09:26:30;;;;;;;3.45;2.47;;;21.50;50.30;20.50;100397.00;;;;5084761;28;20122;-67
2022/10/21 09:28:56;;;;;;;4.85;2.85;;;21.50;50.30;20.50;100390.00;;;;5054851;28;20083;-66
2022/10/21 09:31:22;;;;;;;3.95;3.33;;;21.50;50.30;20.50;100391.00;;;;5089350;28;20024;-66
2022/10/21 09:33:58;;;;;;;4.50;2.90;;;21.40;50.30;20.50;100391.00;;;;5089828;28;20040;-66
2022/10/21 09:36:30;;;;;;;4.00;2.65;;;21.50;50.40;20.50;100390.00;;;;5061058;28;20028;-66
2022/10/21 09:39:20;;;;;;;3.60;2.45;;;21.50;50.40;20.50;100384.00;;;;5072942;28;20125;-66
2022/10/21 09:41:50;;;;;;;2.45;2.25;;;21.50;50.40;20.50;100386.00;;;;5055918;28;20024;-66
2022/10/21 09:44:24;;;;;;;3.50;2.40;;;21.50;50.40;20.50;100382.00;;;;5053986;28;20028;-66
2022/10/21 09:46:51;;;;;;;6.53;2.90;;;21.50;50.50;20.50;100384.00;;;;5078143;28;20547;-66
2022/10/21 09:49:29;;;;;;;3.22;2.42;;;21.50;50.50;20.50;100385.00;;;;5070947;28;20056;-66
2022/10/21 09:51:56;;;;;;;3.92;2.50;;;21.50;50.50;20.50;100393.00;;;;5056507;28;20054;-66
2022/10/21 09:54:24;;;;;;;2.90;2.35;;;21.50;50.50;20.50;100390.00;;;;5072079;28;20085;-67
2022/10/21 09:56:59;;;;;;;2.95;2.65;;;21.50;50.50;20.50;100386.00;;;;5086539;28;20040;-66
2022/10/21 09:59:25;;;;;;;4.07;2.42;;;21.50;50.50;20.50;100390.00;;;;5058166;28;20086;-67
2022/10/21 10:01:51;;;;;;;3.30;2.90;;;21.50;50.50;20.50;100387.00;;;;5086972;28;20024;-66
2022/10/21 10:04:30;;;;;;;3.35;2.60;;;21.50;50.50;20.50;100389.00;;;;5053194;28;20112;-66
2022/10/21 10:06:59;;;;;;;4.63;2.85;;;21.50;50.60;20.60;100387.00;;;;5070180;28;20088;-66
2022/10/21 10:09:31;;;;;;;2.42;2.22;;;21.50;50.60;20.50;100388.00;;;;5055146;28;20035;-66
2022/10/21 10:12:00;;;;;;;6.43;3.00;;;21.50;50.60;20.60;100387.00;;;;5052864;28;20032;-67
2022/10/21 10:14:34;;;;;;;2.55;2.13;;;21.50;50.60;20.60;100384.00;;;;5072345;28;20029;-67
2022/10/21 10:17:32;;;;;;;4.53;2.42;;;21.50;50.60;20.60;100379.00;;;;5079138;28;20032;-66
2022/10/21 10:20:04;;;;;;;;;;;21.50;50.60;20.50;100378.00;;;;5089794;28;20068;-67
2022/10/21 10:22:31;;;;;;;2.78;2.13;;;21.60;50.50;20.50;100384.00;;;;5089221;28;19912;-67
2022/10/21 10:25:27;;;;;;;2.25;2.00;;;21.50;50.50;20.50;100380.00;;;;5089898;28;20271;-67
2022/10/21 10:28:01;;;;;;;4.53;2.53;;;21.60;50.60;20.50;100386.00;;;;5069945;28;20036;-67
2022/10/21 10:30:54;;;;;;;2.72;2.17;;;21.60;50.70;20.50;100378.00;;;;5089837;28;20061;-67
2022/10/21 10:33:25;;;;;;;4.20;2.70;;;21.50;50.70;20.50;100383.00;;;;5072273;28;20021;-67
2022/10/21 10:36:02;;;;;;;2.45;1.88;;;21.50;50.70;20.50;100382.00;;;;5077978;28;20036;-66
2022/10/21 10:38:44;;;;;;;3.17;2.50;;;21.50;50.70;20.50;100366.00;;;;5071100;28;20032;-67
2022/10/21 10:41:12;;;;;;;3.25;2.15;;;21.50;50.70;20.50;100376.00;;;;5072451;28;20024;-66
2022/10/21 10:43:53;;;;;;;3.50;2.70;;;21.50;50.70;20.50;100372.00;;;;5073018;28;20107;-67
2022/10/21 10:46:33;;;;;;;3.58;2.15;;;21.60;50.80;20.50;100390.00;;;;5072968;28;20477;-67
2022/10/21 10:49:13;;;;;;;2.83;2.13;;;21.50;50.80;20.50;100389.00;;;;5093529;28;20473;-67
2022/10/21 10:51:42;;;;;;;4.15;2.47;;;21.50;50.80;20.50;100397.00;;;;5093341;28;20036;-67
2022/10/21 10:54:26;;;;;;;2.42;2.17;;;21.60;50.80;20.60;100389.00;;;;5093161;28;20071;-67
2022/10/21 10:57:14;;;;;;;3.30;2.15;;;21.50;50.80;20.60;100392.00;;;;5075672;28;20059;-67
2022/10/21 10:59:55;;;;;;;2.72;2.20;;;21.60;50.90;20.60;100388.00;;;;5077861;28;20028;-67